Time;durP1;ratioP1;P1;durP2;ratioP2;P2;SDS_P1;SDS_P2;PMS_P1;PMS_P2;Temp;Humidity;BMP_temperature;BMP_pressure;BME280_temperature;BME280_humidity;BME280_pressure;Samples;Min_cycle;Max_cycle;Signal;HPM_P1;HPM_P2
2022/10/02 00:01:23;;;;;;;;;;;11.60;99.90;;;;;;5010753;28;19959;-71
2022/10/02 00:03:55;;;;;;;;;;;11.60;99.90;;;;;;5009569;28;19961;-71
2022/10/02 00:06:30;;;;;;;;;;;11.60;99.90;;;;;;5005533;28;20453;-71
2022/10/02 00:08:59;;;;;;;;;;;11.60;99.90;;;;;;5010734;28;19930;-72
2022/10/02 00:11:30;;;;;;;;;;;11.60;99.90;;;;;;5008974;28;19933;-72
2022/10/02 00:14:02;;;;;;;;;;;11.60;99.90;;;;;;5005161;28;19980;-71
2022/10/02 00:16:39;;;;;;;;;;;11.70;99.90;;;;;;5015345;28;20398;-72
2022/10/02 00:19:14;;;;;;;;;;;11.70;99.90;;;;;;4989579;28;19949;-72
2022/10/02 00:22:02;;;;;;;;;;;11.70;99.90;;;;;;5003782;28;20431;-72
2022/10/02 00:24:36;;;;;;;;;;;11.70;99.90;;;;;;5001486;28;19986;-71
2022/10/02 00:27:25;;;;;;;;;;;11.70;99.90;;;;;;5000521;28;19971;-72
2022/10/02 00:29:59;;;;;;;;;;;11.70;99.90;;;;;;4983038;28;19930;-72
2022/10/02 00:33:03;;;;;;;;;;;11.80;99.90;;;;;;5005911;28;20383;-72
2022/10/02 00:35:43;;;;;;;;;;;11.80;99.90;;;;;;4967298;28;19980;-72
2022/10/02 00:38:33;;;;;;;;;;;11.80;99.90;;;;;;5008056;28;19957;-72
2022/10/02 00:41:17;;;;;;;;;;;11.80;99.90;;;;;;4978736;28;20400;-71
2022/10/02 00:43:52;;;;;;;;;;;11.80;99.90;;;;;;5001547;28;19996;-72
2022/10/02 00:46:35;;;;;;;;;;;11.80;99.90;;;;;;5002745;28;19972;-72
2022/10/02 00:49:26;;;;;;;;;;;11.80;99.90;;;;;;5003926;28;19957;-72
2022/10/02 00:52:08;;;;;;;;;;;11.70;99.90;;;;;;4993390;28;19926;-72
2022/10/02 00:54:49;;;;;;;;;;;11.70;99.90;;;;;;4992975;28;19925;-72
2022/10/02 00:57:21;;;;;;;;;;;11.70;99.90;;;;;;4999477;28;19929;-72
2022/10/02 01:00:00;;;;;;;;;;;11.60;99.90;;;;;;4985645;28;19967;-72
2022/10/02 01:02:37;;;;;;;;;;;11.60;99.90;;;;;;5005142;28;19957;-72
2022/10/02 01:05:09;;;;;;;;;;;11.60;99.90;;;;;;4999785;28;19926;-72
2022/10/02 01:07:41;;;;;;;;;;;11.70;99.90;;;;;;5009890;28;19930;-72
2022/10/02 01:10:13;;;;;;;;;;;11.80;99.90;;;;;;5007983;28;19933;-72
2022/10/02 01:12:45;;;;;;;;;;;11.80;99.90;;;;;;4997701;28;19929;-72
2022/10/02 01:15:12;;;;;;;;;;;11.90;99.90;;;;;;5009096;28;19933;-72
2022/10/02 01:17:44;;;;;;;;;;;12.00;99.90;;;;;;5001927;28;19933;-72
2022/10/02 01:20:20;;;;;;;;;;;12.00;99.90;;;;;;5008918;28;19930;-72
2022/10/02 01:23:02;;;;;;;;;;;12.00;99.90;;;;;;4995909;28;19925;-72
2022/10/02 01:25:34;;;;;;;;;;;12.00;99.90;;;;;;5012775;28;20542;-72
2022/10/02 01:28:01;;;;;;;;;;;12.00;99.90;;;;;;5005453;28;19973;-72
2022/10/02 01:30:34;;;;;;;;;;;11.90;99.90;;;;;;4971484;28;19968;-72
2022/10/02 01:33:06;;;;;;;;;;;12.00;99.90;;;;;;4995580;28;20314;-72
2022/10/02 01:35:35;;;;;;;;;;;12.00;99.90;;;;;;4990887;28;20343;-72
2022/10/02 01:38:08;;;;;;;;;;;12.00;99.90;;;;;;5003554;28;20356;-72
2022/10/02 01:40:40;;;;;;;;;;;12.00;99.90;;;;;;4977879;28;20474;-72
2022/10/02 01:43:08;;;;;;;;;;;12.00;99.90;;;;;;4999127;28;19991;-72
2022/10/02 01:45:35;;;;;;;;;;;12.00;99.90;;;;;;5000546;28;20486;-73
2022/10/02 01:48:18;;;;;;;;;;;12.00;99.90;;;;;;5006750;28;20011;-72
2022/10/02 01:50:53;;;;;;;;;;;12.10;99.90;;;;;;4998737;28;20347;-72
2022/10/02 01:53:24;;;;;;;;;;;12.00;99.90;;;;;;4998157;28;20050;-72
2022/10/02 01:55:59;;;;;;;;;;;12.00;99.90;;;;;;5005622;28;19934;-72
2022/10/02 01:58:31;;;;;;;;;;;12.00;99.90;;;;;;5006550;28;20442;-72
2022/10/02 02:01:01;;;;;;;;;;;12.10;99.90;;;;;;4993024;28;19926;-72
2022/10/02 02:03:32;;;;;;;;;;;12.10;99.90;;;;;;5002497;28;19929;-72
2022/10/02 02:06:08;;;;;;;;;;;12.10;99.90;;;;;;5002636;28;19984;-72
2022/10/02 02:08:39;;;;;;;;;;;12.00;99.90;;;;;;4992510;28;19926;-72
2022/10/02 02:11:15;;;;;;;;;;;12.00;99.90;;;;;;4996034;28;19925;-72
2022/10/02 02:13:54;;;;;;;;;;;12.10;99.90;;;;;;4984418;28;19981;-71
2022/10/02 02:16:31;;;;;;;;;;;12.10;99.90;;;;;;4998825;28;19984;-72
2022/10/02 02:19:07;;;;;;;;;;;12.10;99.90;;;;;;5007679;28;20549;-72
2022/10/02 02:21:47;;;;;;;;;;;12.10;99.90;;;;;;5000731;28;19926;-71
2022/10/02 02:24:29;;;;;;;;;;;12.20;99.90;;;;;;5008303;28;19925;-73
2022/10/02 02:27:03;;;;;;;;;;;12.20;99.90;;;;;;5016616;28;19948;-71
2022/10/02 02:29:36;;;;;;;;;;;12.20;99.90;;;;;;5022343;28;19926;-71
2022/10/02 02:32:05;;;;;;;;;;;12.20;99.90;;;;;;5011617;28;20388;-72
2022/10/02 02:34:40;;;;;;;;;;;12.20;99.90;;;;;;4994830;28;19983;-72
2022/10/02 02:37:10;;;;;;;;;;;12.20;99.90;;;;;;5000345;28;19993;-72
2022/10/02 02:40:08;;;;;;;;;;;12.20;99.90;;;;;;4987477;28;21540;-72
2022/10/02 02:42:41;;;;;;;;;;;12.20;99.90;;;;;;4969450;28;20534;-71
2022/10/02 02:45:16;;;;;;;;;;;12.30;99.90;;;;;;5004634;28;19970;-71
2022/10/02 02:47:54;;;;;;;;;;;12.30;99.90;;;;;;5009061;28;19934;-72
2022/10/02 02:50:32;;;;;;;;;;;12.30;99.90;;;;;;5005430;28;20328;-72
2022/10/02 02:53:04;;;;;;;;;;;12.30;99.90;;;;;;5010205;28;20284;-72
2022/10/02 02:55:39;;;;;;;;;;;12.40;99.90;;;;;;4998070;28;20295;-72
2022/10/02 02:58:15;;;;;;;;;;;12.40;99.90;;;;;;4991785;28;19929;-72
2022/10/02 03:00:46;;;;;;;;;;;12.40;99.90;;;;;;5008337;28;19973;-72
2022/10/02 03:03:18;;;;;;;;;;;12.40;99.90;;;;;;4972018;28;20314;-72
2022/10/02 03:05:52;;;;;;;;;;;12.40;99.90;;;;;;4996810;28;20376;-72
2022/10/02 03:08:26;;;;;;;;;;;12.50;99.90;;;;;;5008297;28;19933;-72
2022/10/02 03:10:58;;;;;;;;;;;12.50;99.90;;;;;;5004813;28;19972;-71
2022/10/02 03:13:41;;;;;;;;;;;12.50;99.90;;;;;;4992847;28;19926;-72
2022/10/02 03:16:26;;;;;;;;;;;12.50;99.90;;;;;;5015159;28;19926;-72
2022/10/02 03:19:07;;;;;;;;;;;12.50;99.90;;;;;;5010034;28;20323;-71
2022/10/02 03:21:41;;;;;;;;;;;12.60;99.90;;;;;;4985774;28;19925;-71
2022/10/02 03:24:21;;;;;;;;;;;12.60;99.90;;;;;;5011659;28;19960;-71
2022/10/02 03:26:58;;;;;;;;;;;12.60;99.90;;;;;;5006278;28;19926;-71
2022/10/02 03:29:35;;;;;;;;;;;12.60;99.90;;;;;;5004953;28;19957;-70
2022/10/02 03:32:07;;;;;;;;;;;12.60;99.90;;;;;;5006498;28;19929;-70
2022/10/02 03:34:39;;;;;;;;;;;12.70;99.90;;;;;;5007856;28;19926;-71
2022/10/02 03:37:11;;;;;;;;;;;12.60;99.90;;;;;;5000945;28;19926;-70
2022/10/02 03:39:43;;;;;;;;;;;12.60;99.90;;;;;;4991875;28;19926;-72
2022/10/02 03:42:16;;;;;;;;;;;12.70;99.90;;;;;;5009022;28;19934;-71
2022/10/02 03:44:47;;;;;;;;;;;12.70;99.90;;;;;;5005157;28;19933;-71
2022/10/02 03:47:19;;;;;;;;;;;12.70;99.90;;;;;;4979697;28;19926;-72
2022/10/02 03:49:50;;;;;;;;;;;12.70;99.90;;;;;;5006369;28;20043;-71
2022/10/02 03:52:22;;;;;;;;;;;12.70;99.90;;;;;;4998866;28;19981;-71
2022/10/02 03:55:01;;;;;;;;;;;12.70;99.90;;;;;;5001612;28;19929;-71
2022/10/02 03:57:33;;;;;;;;;;;12.70;99.90;;;;;;5004795;28;20478;-71
2022/10/02 04:00:07;;;;;;;;;;;12.70;99.90;;;;;;5011796;28;19925;-70
2022/10/02 04:02:39;;;;;;;;;;;12.70;99.90;;;;;;4993596;28;19926;-70
2022/10/02 04:05:13;;;;;;;;;;;12.70;99.90;;;;;;5009129;28;20391;-71
2022/10/02 04:07:47;;;;;;;;;;;12.70;99.90;;;;;;4993511;28;19930;-71
2022/10/02 04:10:28;;;;;;;;;;;12.60;99.90;;;;;;5007466;28;19929;-71
2022/10/02 04:13:08;;;;;;;;;;;12.60;99.90;;;;;;5010923;28;19981;-71
2022/10/02 04:15:46;;;;;;;;;;;12.60;99.90;;;;;;4998136;28;19976;-70
2022/10/02 04:18:25;;;;;;;;;;;12.70;99.90;;;;;;4987078;28;19961;-71
2022/10/02 04:21:04;;;;;;;;;;;12.70;99.90;;;;;;4992900;28;19926;-71
2022/10/02 04:23:42;;;;;;;;;;;12.70;99.90;;;;;;5008066;28;19926;-72
2022/10/02 04:26:17;;;;;;;;;;;12.70;99.90;;;;;;4993723;28;19932;-71
2022/10/02 04:28:53;;;;;;;;;;;12.70;99.90;;;;;;4975667;28;20508;-71
2022/10/02 04:31:26;;;;;;;;;;;12.70;99.90;;;;;;4999355;28;19976;-71
2022/10/02 04:34:00;;;;;;;;;;;12.80;99.90;;;;;;5006909;28;19926;-72
2022/10/02 04:36:54;;;;;;;;;;;12.80;99.90;;;;;;5001987;28;20508;-71
2022/10/02 04:39:30;;;;;;;;;;;12.80;99.90;;;;;;5005820;28;19925;-71
2022/10/02 04:42:21;;;;;;;;;;;12.80;99.90;;;;;;5003143;28;20492;-70
2022/10/02 04:45:01;;;;;;;;;;;12.80;99.90;;;;;;4998398;28;19951;-72
2022/10/02 04:47:35;;;;;;;;;;;12.90;99.90;;;;;;4998377;28;19930;-72
2022/10/02 04:50:16;;;;;;;;;;;12.90;99.90;;;;;;4997856;28;19957;-72
2022/10/02 04:52:53;;;;;;;;;;;13.00;99.90;;;;;;5004763;28;19926;-70
2022/10/02 04:55:28;;;;;;;;;;;13.00;99.90;;;;;;5005389;28;19926;-71
2022/10/02 04:58:06;;;;;;;;;;;13.10;99.90;;;;;;5003937;28;19980;-74
2022/10/02 05:00:52;;;;;;;;;;;13.00;99.90;;;;;;4991742;28;20423;-73
2022/10/02 05:03:27;;;;;;;;;;;13.10;99.90;;;;;;5004200;28;19933;-71
2022/10/02 05:06:14;;;;;;;;;;;13.20;99.90;;;;;;4995437;28;20335;-71
2022/10/02 05:08:56;;;;;;;;;;;13.10;99.90;;;;;;4987033;28;20408;-71
2022/10/02 05:11:46;;;;;;;;;;;13.10;99.90;;;;;;4978607;28;19933;-71
2022/10/02 05:14:40;;;;;;;;;;;13.10;99.90;;;;;;5007465;28;19929;-71
2022/10/02 05:17:15;;;;;;;;;;;13.00;99.90;;;;;;4989598;28;19977;-71
2022/10/02 05:19:46;;;;;;;;;;;12.90;99.90;;;;;;4995193;28;19933;-72
2022/10/02 05:22:26;;;;;;;;;;;12.90;99.90;;;;;;5007876;28;19933;-71
2022/10/02 05:24:57;;;;;;;;;;;12.90;99.90;;;;;;4972852;28;19925;-71
2022/10/02 05:27:29;;;;;;;;;;;12.80;99.90;;;;;;5001060;28;19925;-72
2022/10/02 05:30:07;;;;;;;;;;;12.80;99.90;;;;;;5005766;28;19980;-71
2022/10/02 05:32:38;;;;;;;;;;;12.70;99.90;;;;;;5007385;28;19930;-71
2022/10/02 05:35:22;;;;;;;;;;;12.70;99.90;;;;;;5001961;28;19972;-71
2022/10/02 05:38:12;;;;;;;;;;;12.70;99.90;;;;;;5010996;28;19948;-70
2022/10/02 05:40:43;;;;;;;;;;;12.70;99.90;;;;;;5020174;28;19925;-70
2022/10/02 05:43:30;;;;;;;;;;;12.70;99.90;;;;;;5021882;28;19976;-71
2022/10/02 05:46:05;;;;;;;;;;;12.70;99.90;;;;;;4991435;28;19941;-71
2022/10/02 05:48:36;;;;;;;;;;;12.70;99.90;;;;;;5005619;28;19969;-71
2022/10/02 05:51:10;;;;;;;;;;;12.70;99.90;;;;;;4995307;28;19929;-71
2022/10/02 05:53:49;;;;;;;;;;;12.70;99.90;;;;;;5009752;28;19929;-71
2022/10/02 05:56:21;;;;;;;;;;;12.70;99.90;;;;;;4998665;28;19925;-71
2022/10/02 05:59:00;;;;;;;;;;;12.70;99.90;;;;;;5002297;28;19929;-70
2022/10/02 06:01:35;;;;;;;;;;;12.70;99.90;;;;;;4998955;28;19933;-70
2022/10/02 06:04:32;;;;;;;;;;;12.70;99.90;;;;;;4999007;28;19926;-70
2022/10/02 06:07:07;;;;;;;;;;;12.70;99.90;;;;;;5001552;28;19925;-71
2022/10/02 06:09:45;;;;;;;;;;;12.70;99.90;;;;;;4987012;28;19934;-70
2022/10/02 06:12:25;;;;;;;;;;;12.60;99.90;;;;;;5011053;28;19983;-71
2022/10/02 06:14:57;;;;;;;;;;;12.60;99.90;;;;;;5002806;28;19954;-70
2022/10/02 06:17:32;;;;;;;;;;;12.60;99.90;;;;;;5005731;28;19973;-73
2022/10/02 06:20:07;;;;;;;;;;;12.60;99.90;;;;;;5003144;28;20396;-71
2022/10/02 06:22:47;;;;;;;;;;;12.60;99.90;;;;;;5005979;28;19929;-71
2022/10/02 06:25:22;;;;;;;;;;;12.50;99.90;;;;;;5004220;28;19936;-71
2022/10/02 06:28:01;;;;;;;;;;;12.50;99.90;;;;;;4993327;28;19926;-71
2022/10/02 06:30:36;;;;;;;;;;;12.40;99.90;;;;;;5001334;28;19980;-70
2022/10/02 06:33:15;;;;;;;;;;;12.40;99.90;;;;;;5008999;28;20012;-71
2022/10/02 06:35:46;;;;;;;;;;;12.40;99.90;;;;;;4980757;28;19930;-70
2022/10/02 06:38:27;;;;;;;;;;;12.40;99.90;;;;;;4965605;28;19929;-72
2022/10/02 06:41:05;;;;;;;;;;;12.40;99.90;;;;;;5011926;28;19964;-72
2022/10/02 06:43:42;;;;;;;;;;;12.40;99.90;;;;;;5004215;28;19937;-71
2022/10/02 06:46:26;;;;;;;;;;;12.40;99.90;;;;;;5000296;28;19980;-71
2022/10/02 06:48:57;;;;;;;;;;;12.40;99.90;;;;;;5007281;28;19926;-70
2022/10/02 06:51:50;;;;;;;;;;;12.40;99.90;;;;;;5003866;28;19930;-71
2022/10/02 06:54:37;;;;;;;;;;;12.40;99.90;;;;;;4999938;28;19977;-71
2022/10/02 06:57:19;;;;;;;;;;;12.40;99.90;;;;;;4991589;28;19926;-72
2022/10/02 07:00:17;;;;;;;;;;;12.50;99.90;;;;;;5009549;28;19925;-71
2022/10/02 07:02:51;;;;;;;;;;;12.60;99.90;;;;;;4996100;28;19936;-71
2022/10/02 07:05:25;;;;;;;;;;;12.60;99.90;;;;;;5010749;28;20447;-71
2022/10/02 07:08:02;;;;;;;;;;;12.60;99.90;;;;;;5002142;28;19937;-71
2022/10/02 07:10:42;;;;;;;;;;;12.70;99.90;;;;;;5005234;28;19992;-71
2022/10/02 07:13:34;;;;;;;;;;;12.70;99.90;;;;;;4970108;28;20001;-71
2022/10/02 07:16:24;;;;;;;;;;;12.70;99.90;;;;;;5000491;28;19933;-70
2022/10/02 07:19:02;;;;;;;;;;;12.80;99.90;;;;;;4993405;28;19981;-71
2022/10/02 07:21:55;;;;;;;;;;;12.80;99.90;;;;;;5009339;28;19930;-72
2022/10/02 07:24:27;;;;;;;;;;;12.80;99.90;;;;;;4995614;28;19929;-71
2022/10/02 07:27:11;;;;;;;;;;;12.90;99.90;;;;;;5000219;28;19936;-71
2022/10/02 07:29:42;;;;;;;;;;;13.00;99.90;;;;;;5007356;28;19926;-71
2022/10/02 07:32:23;;;;;;;;;;;13.00;99.90;;;;;;5005483;28;19971;-71
2022/10/02 07:35:33;;;;;;;;;;;13.10;99.90;;;;;;5009341;28;19980;-71
2022/10/02 07:38:14;;;;;;;;;;;13.10;99.90;;;;;;4970081;28;19930;-71
2022/10/02 07:41:01;;;;;;;;;;;13.10;99.90;;;;;;4967397;28;19982;-71
2022/10/02 07:43:42;;;;;;;;;;;13.10;99.90;;;;;;4994241;28;19980;-72
2022/10/02 07:46:32;;;;;;;;;;;13.20;99.90;;;;;;4979715;28;19961;-71
2022/10/02 07:49:19;;;;;;;;;;;13.20;99.90;;;;;;5002184;28;19925;-72
2022/10/02 07:51:54;;;;;;;;;;;13.30;99.90;;;;;;5005048;28;19925;-72
2022/10/02 07:54:44;;;;;;;;;;;13.40;99.90;;;;;;4991941;28;19926;-72
2022/10/02 07:57:23;;;;;;;;;;;13.40;99.90;;;;;;4981487;28;20442;-71
2022/10/02 07:59:58;;;;;;;;;;;13.40;99.90;;;;;;5001967;28;20397;-72
2022/10/02 08:02:51;;;;;;;;;;;13.50;99.90;;;;;;5006005;28;19925;-72
2022/10/02 08:05:32;;;;;;;;;;;13.60;99.90;;;;;;5013442;28;19925;-71
2022/10/02 08:08:24;;;;;;;;;;;13.70;99.90;;;;;;5004696;28;19926;-71
2022/10/02 08:10:57;;;;;;;;;;;13.80;99.90;;;;;;5006934;28;19933;-71
2022/10/02 08:13:38;;;;;;;;;;;13.90;99.90;;;;;;5000257;28;19961;-72
2022/10/02 08:16:12;;;;;;;;;;;14.00;99.90;;;;;;5001638;28;20045;-71
2022/10/02 08:18:47;;;;;;;;;;;14.00;99.90;;;;;;5008708;28;19926;-74
2022/10/02 08:21:15;;;;;;;;;;;14.10;99.90;;;;;;5006712;28;20363;-71
2022/10/02 08:23:49;;;;;;;;;;;14.20;99.90;;;;;;5010357;28;19925;-72
2022/10/02 08:26:25;;;;;;;;;;;14.30;99.90;;;;;;5008988;28;19973;-71
2022/10/02 08:29:17;;;;;;;;;;;14.40;99.90;;;;;;4980936;28;20122;-71
2022/10/02 08:31:50;;;;;;;;;;;14.50;99.90;;;;;;4996187;28;20379;-72
2022/10/02 08:34:23;;;;;;;;;;;14.60;99.90;;;;;;4993341;28;19980;-71
2022/10/02 08:36:54;;;;;;;;;;;14.60;99.90;;;;;;4978339;28;19998;-71
2022/10/02 08:39:35;;;;;;;;;;;14.70;99.90;;;;;;5000750;28;19925;-71
2022/10/02 08:42:26;;;;;;;;;;;14.80;99.90;;;;;;4979103;28;19933;-72
2022/10/02 08:45:16;;;;;;;;;;;14.80;99.90;;;;;;4999485;28;19973;-72
2022/10/02 08:48:06;;;;;;;;;;;14.90;99.90;;;;;;5013144;28;19929;-72
2022/10/02 08:50:58;;;;;;;;;;;15.00;99.90;;;;;;5022848;28;19957;-71
2022/10/02 08:53:41;;;;;;;;;;;15.20;99.90;;;;;;5008829;28;20384;-71
2022/10/02 08:56:13;;;;;;;;;;;15.30;99.90;;;;;;4990201;28;19964;-72
2022/10/02 08:59:04;;;;;;;;;;;15.30;99.90;;;;;;4991224;28;19926;-70
2022/10/02 09:01:35;;;;;;;;;;;15.40;99.90;;;;;;4973068;28;19926;-74
2022/10/02 09:04:39;;;;;;;;;;;15.40;99.90;;;;;;4976394;28;20556;-72
2022/10/02 09:07:29;;;;;;;;;;;15.50;99.90;;;;;;4988209;28;20474;-71
2022/10/02 09:10:25;;;;;;;;;;;15.60;99.90;;;;;;5007586;28;19945;-71
2022/10/02 09:13:08;;;;;;;;;;;15.60;99.90;;;;;;4983676;28;20272;-71
2022/10/02 09:16:00;;;;;;;;;;;15.60;99.90;;;;;;4985885;28;19930;-72
2022/10/02 09:18:38;;;;;;;;;;;15.70;99.90;;;;;;4990939;28;19933;-71
2022/10/02 09:21:17;;;;;;;;;;;15.80;99.90;;;;;;5002757;28;19929;-71
2022/10/02 09:24:07;;;;;;;;;;;15.90;99.90;;;;;;4985346;28;19934;-71
2022/10/02 09:26:39;;;;;;;;;;;15.90;99.90;;;;;;5000003;28;19933;-72
2022/10/02 09:29:33;;;;;;;;;;;16.00;99.90;;;;;;4994614;28;19933;-72
2022/10/02 09:32:05;;;;;;;;;;;16.00;99.90;;;;;;5007136;28;19926;-72
2022/10/02 09:34:57;;;;;;;;;;;16.00;99.90;;;;;;4998693;28;19980;-73
2022/10/02 09:37:39;;;;;;;;;;;16.10;99.90;;;;;;5002243;28;23456;-72
2022/10/02 09:40:31;;;;;;;;;;;16.10;99.90;;;;;;5000496;28;20340;-72
2022/10/02 09:43:03;;;;;;;;;;;16.20;99.90;;;;;;5007486;28;20004;-72
2022/10/02 09:45:31;;;;;;;;;;;16.20;99.90;;;;;;4993850;28;19929;-72
2022/10/02 09:48:26;;;;;;;;;;;16.30;99.90;;;;;;4981408;28;19936;-72
2022/10/02 09:51:11;;;;;;;;;;;16.40;99.90;;;;;;4992899;28;19925;-72
2022/10/02 09:53:49;;;;;;;;;;;16.40;99.90;;;;;;5000136;28;19929;-72
2022/10/02 09:56:29;;;;;;;;;;;16.50;99.90;;;;;;4985102;28;19996;-72
2022/10/02 09:59:11;;;;;;;;;;;16.60;99.90;;;;;;5000639;28;20027;-72
2022/10/02 10:02:01;;;;;;;;;;;16.70;99.90;;;;;;5007706;28;19944;-72
2022/10/02 10:04:37;;;;;;;;;;;16.80;99.90;;;;;;4998881;28;19925;-72
2022/10/02 10:07:21;;;;;;;;;;;16.90;99.90;;;;;;4979777;28;19992;-72
2022/10/02 10:10:02;;;;;;;;;;;17.00;99.90;;;;;;4989104;28;20354;-72
2022/10/02 10:12:34;;;;;;;;;;;17.10;99.90;;;;;;5000462;28;19930;-72
2022/10/02 10:15:39;;;;;;;;;;;17.20;99.90;;;;;;5007541;28;20645;-72
2022/10/02 10:18:25;;;;;;;;;;;17.30;99.90;;;;;;4974485;28;19929;-72
2022/10/02 10:20:57;;;;;;;;;;;17.30;99.90;;;;;;4989835;28;19930;-72
2022/10/02 10:24:05;;;;;;;;;;;17.40;99.90;;;;;;5000740;28;19965;-72
2022/10/02 10:26:46;;;;;;;;;;;17.50;99.90;;;;;;4955129;28;19954;-72
2022/10/02 10:29:27;;;;;;;;;;;17.60;99.90;;;;;;4998677;28;19930;-72
2022/10/02 10:32:01;;;;;;;;;;;17.60;99.90;;;;;;5001972;28;19977;-72
2022/10/02 10:34:52;;;;;;;;;;;17.70;99.90;;;;;;5005111;28;19971;-72
2022/10/02 10:40:28;;;;;;;;;;;17.90;99.90;;;;;;5010138;28;19933;-72
2022/10/02 10:43:14;;;;;;;;;;;17.90;99.90;;;;;;4996095;28;19936;-72
2022/10/02 10:46:02;;;;;;;;;;;17.90;99.90;;;;;;4992905;28;19933;-72
2022/10/02 10:48:55;;;;;;;;;;;18.00;99.90;;;;;;5005148;28;20458;-72
2022/10/02 10:51:30;;;;;;;;;;;18.00;99.90;;;;;;5009242;28;19925;-72
2022/10/02 10:54:21;;;;;;;;;;;18.00;99.90;;;;;;4996391;28;19929;-72
2022/10/02 10:56:53;;;;;;;;;;;18.00;99.90;;;;;;5007200;28;19980;-71
2022/10/02 10:59:41;;;;;;;;;;;18.00;99.90;;;;;;5004051;28;19984;-71
2022/10/02 11:02:34;;;;;;;;;;;18.00;99.90;;;;;;5003352;28;19925;-72
2022/10/02 11:05:21;;;;;;;;;;;18.10;99.90;;;;;;5003122;28;20403;-71
2022/10/02 11:08:11;;;;;;;;;;;18.10;99.90;;;;;;5003598;28;19929;-71
2022/10/02 11:10:43;;;;;;;;;;;18.20;99.90;;;;;;4987406;28;19975;-71
2022/10/02 11:13:15;;;;;;;;;;;18.20;99.90;;;;;;5008757;28;20395;-72
2022/10/02 11:15:59;;;;;;;;;;;18.40;99.90;;;;;;5011629;28;20380;-72
2022/10/02 11:18:39;;;;;;;;;;;18.60;99.90;;;;;;4993555;28;19933;-72
2022/10/02 11:21:20;;;;;;;;;;;18.70;99.90;;;;;;4993397;28;20484;-72
2022/10/02 11:23:52;;;;;;;;;;;18.70;99.90;;;;;;5013000;28;19971;-72
2022/10/02 11:26:42;;;;;;;;;;;18.60;99.90;;;;;;4996003;28;19925;-72
2022/10/02 11:29:14;;;;;;;;;;;18.60;99.90;;;;;;5004375;28;19945;-72
2022/10/02 11:31:59;;;;;;;;;;;18.60;99.90;;;;;;5010031;28;20434;-71
2022/10/02 11:34:32;;;;;;;;;;;18.60;99.90;;;;;;5001501;28;19941;-71
2022/10/02 11:37:09;;;;;;;;;;;18.60;99.90;;;;;;4996024;28;20009;-72
2022/10/02 11:39:40;;;;;;;;;;;18.50;99.90;;;;;;4984535;28;20339;-72
2022/10/02 11:42:18;;;;;;;;;;;18.60;99.90;;;;;;5003504;28;19936;-72
2022/10/02 11:44:48;;;;;;;;;;;18.60;99.90;;;;;;4990248;28;20420;-72
2022/10/02 11:47:39;;;;;;;;;;;18.60;99.90;;;;;;5010137;28;20323;-72
2022/10/02 11:50:13;;;;;;;;;;;18.70;99.90;;;;;;4995164;28;20469;-72
2022/10/02 11:52:55;;;;;;;;;;;18.80;99.90;;;;;;4994666;28;20626;-72
2022/10/02 11:55:44;;;;;;;;;;;18.80;99.90;;;;;;4999313;28;19934;-72
2022/10/02 11:58:40;;;;;;;;;;;18.80;99.90;;;;;;5030367;28;19925;-72
2022/10/02 12:01:21;;;;;;;;;;;18.90;99.90;;;;;;4993757;28;19933;-72
2022/10/02 12:03:55;;;;;;;;;;;19.10;99.90;;;;;;4997570;28;20390;-72
2022/10/02 12:06:37;;;;;;;;;;;19.10;99.90;;;;;;5004361;28;19925;-72
2022/10/02 12:09:18;;;;;;;;;;;19.20;99.90;;;;;;5000720;28;19933;-72
2022/10/02 12:12:15;;;;;;;;;;;19.10;99.90;;;;;;5007532;28;19933;-72
2022/10/02 12:15:01;;;;;;;;;;;19.10;99.90;;;;;;4975509;28;19988;-72
2022/10/02 12:17:52;;;;;;;;;;;19.10;99.90;;;;;;4990731;28;19926;-72
2022/10/02 12:29:26;;;;;;;;;;;19.10;99.90;;;;;;4997456;28;19961;-72
2022/10/02 12:32:06;;;;;;;;;;;19.00;99.90;;;;;;4999881;28;19929;-70
2022/10/02 12:34:47;;;;;;;;;;;19.00;99.90;;;;;;4992066;28;19929;-71
2022/10/02 12:37:28;;;;;;;;;;;19.00;99.90;;;;;;5000042;28;19977;-72
2022/10/02 12:40:00;;;;;;;;;;;19.00;99.90;;;;;;4992607;28;20444;-72
2022/10/02 12:42:50;;;;;;;;;;;19.00;99.90;;;;;;5005236;28;19929;-72
2022/10/02 12:45:16;;;;;;;;;;;18.90;99.90;;;;;;5003613;28;20351;-71
2022/10/02 12:48:00;;;;;;;;;;;18.90;99.90;;;;;;5002763;28;20026;-72
2022/10/02 12:50:26;;;;;;;;;;;18.80;99.90;;;;;;4997834;28;20384;-71
2022/10/02 12:53:07;;;;;;;;;;;18.80;99.90;;;;;;4991373;28;19973;-71
2022/10/02 12:55:51;;;;;;;;;;;18.70;99.90;;;;;;5003219;28;19925;-71
2022/10/02 12:58:30;;;;;;;;;;;18.50;99.90;;;;;;5010257;28;19980;-71
2022/10/02 13:01:07;;;;;;;;;;;18.20;99.90;;;;;;4994332;28;19957;-72
2022/10/02 13:03:34;;;;;;;;;;;18.00;99.90;;;;;;5000419;28;19937;-72
2022/10/02 13:06:05;;;;;;;;;;;17.80;99.90;;;;;;4992988;28;19925;-72
2022/10/02 13:08:40;;;;;;;;;;;17.50;99.90;;;;;;4993038;28;19926;-71
2022/10/02 13:11:18;;;;;;;;;;;17.40;99.90;;;;;;5001750;28;19968;-72
2022/10/02 13:14:15;;;;;;;;;;;17.20;99.90;;;;;;4998775;28;19925;-72
2022/10/02 13:16:56;;;;;;;;;;;17.10;99.90;;;;;;5000055;28;19976;-72
2022/10/02 13:19:23;;;;;;;;;;;17.10;99.90;;;;;;4996312;28;20328;-74
2022/10/02 13:22:13;;;;;;;;;;;17.10;99.90;;;;;;5010137;28;19980;-72
2022/10/02 13:24:48;;;;;;;;;;;17.00;99.90;;;;;;4994910;28;20400;-72
2022/10/02 13:27:48;;;;;;;;;;;17.00;99.90;;;;;;4997030;28;19958;-73
2022/10/02 13:30:21;;;;;;;;;;;16.90;99.90;;;;;;4997180;28;19927;-72
2022/10/02 13:33:07;;;;;;;;;;;16.80;99.90;;;;;;4980760;28;19925;-71
2022/10/02 13:35:51;;;;;;;;;;;16.70;99.90;;;;;;4998563;28;19926;-72
2022/10/02 13:38:23;;;;;;;;;;;16.50;99.90;;;;;;4996692;28;19925;-72
2022/10/02 13:40:50;;;;;;;;;;;16.30;99.90;;;;;;5001609;28;19934;-71
2022/10/02 13:43:45;;;;;;;;;;;16.20;99.90;;;;;;5008042;28;19953;-72
2022/10/02 13:46:28;;;;;;;;;;;16.00;99.90;;;;;;5006473;28;19926;-73
2022/10/02 13:49:18;;;;;;;;;;;15.80;99.90;;;;;;4992306;28;19932;-71
2022/10/02 13:52:01;;;;;;;;;;;15.60;99.90;;;;;;4982015;28;19929;-72
2022/10/02 13:54:28;;;;;;;;;;;15.50;99.90;;;;;;5002380;28;19988;-72
2022/10/02 13:57:04;;;;;;;;;;;15.40;99.90;;;;;;5001124;28;19926;-71
2022/10/02 13:59:48;;;;;;;;;;;15.10;99.90;;;;;;5010335;28;19926;-73
2022/10/02 14:02:38;;;;;;;;;;;15.20;99.90;;;;;;4987211;28;19983;-71
2022/10/02 14:05:28;;;;;;;;;;;15.10;99.90;;;;;;5011472;28;19929;-72
2022/10/02 14:08:05;;;;;;;;;;;15.00;99.90;;;;;;5010813;28;19933;-72
2022/10/02 14:10:36;;;;;;;;;;;15.00;99.90;;;;;;5009912;28;19929;-72
2022/10/02 14:13:11;;;;;;;;;;;14.90;99.90;;;;;;4990436;28;19925;-72
2022/10/02 14:15:42;;;;;;;;;;;14.80;99.90;;;;;;5008933;28;20438;-72
2022/10/02 14:18:28;;;;;;;;;;;14.70;99.90;;;;;;5028429;28;19925;-71
2022/10/02 14:21:05;;;;;;;;;;;14.60;99.90;;;;;;5026307;28;20624;-72
2022/10/02 14:23:51;;;;;;;;;;;14.60;99.90;;;;;;5004178;28;19926;-71
2022/10/02 14:26:26;;;;;;;;;;;14.60;99.90;;;;;;5013763;28;19930;-72
2022/10/02 14:28:58;;;;;;;;;;;14.50;99.90;;;;;;4979243;28;20454;-72
2022/10/02 14:31:42;;;;;;;;;;;14.50;99.90;;;;;;5011190;28;19933;-72
2022/10/02 14:34:13;;;;;;;;;;;14.50;99.90;;;;;;4990074;28;19929;-71
2022/10/02 14:37:15;;;;;;;;;;;14.50;99.90;;;;;;5004652;28;19926;-72
2022/10/02 14:39:48;;;;;;;;;;;14.50;99.90;;;;;;5010628;28;19925;-71
2022/10/02 14:42:21;;;;;;;;;;;14.50;99.90;;;;;;4986680;28;19926;-72
2022/10/02 14:45:13;;;;;;;;;;;14.50;99.90;;;;;;5004168;28;19925;-72
2022/10/02 14:47:54;;;;;;;;;;;14.50;99.90;;;;;;4982937;28;19932;-71
2022/10/02 14:50:32;;;;;;;;;;;14.50;99.90;;;;;;4998059;28;19926;-71
2022/10/02 14:53:23;;;;;;;;;;;14.40;99.90;;;;;;5017826;28;19933;-71
2022/10/02 14:55:58;;;;;;;;;;;14.40;99.90;;;;;;5030370;28;19925;-72
2022/10/02 14:58:38;;;;;;;;;;;14.30;99.90;;;;;;5018211;28;20427;-72
2022/10/02 15:01:14;;;;;;;;;;;14.30;99.90;;;;;;5010500;28;19925;-71
2022/10/02 15:03:59;;;;;;;;;;;14.30;99.90;;;;;;5016195;28;19930;-71
2022/10/02 15:06:40;;;;;;;;;;;14.20;99.90;;;;;;5021402;28;20418;-72
2022/10/02 15:09:14;;;;;;;;;;;14.10;99.90;;;;;;5017515;28;19971;-71
2022/10/02 15:11:46;;;;;;;;;;;14.10;99.90;;;;;;5035271;28;20304;-72
2022/10/02 15:14:41;;;;;;;;;;;14.10;99.90;;;;;;5018305;28;20388;-72
2022/10/02 15:20:25;;;;;;;;;;;14.10;99.90;;;;;;5015339;28;19967;-72
2022/10/02 15:22:57;;;;;;;;;;;14.00;99.90;;;;;;5000105;28;19929;-72
2022/10/02 15:25:54;;;;;;;;;;;14.00;99.90;;;;;;5016821;28;19925;-71
2022/10/02 15:28:44;;;;;;;;;;;14.00;99.90;;;;;;4951844;28;19925;-72
2022/10/02 15:31:38;;;;;;;;;;;14.00;99.90;;;;;;5027869;28;19940;-73
2022/10/02 15:34:09;;;;;;;;;;;14.00;99.90;;;;;;5015194;28;19933;-72
2022/10/02 15:36:59;;;;;;;;;;;13.90;99.90;;;;;;4997660;28;19925;-72
2022/10/02 15:39:31;;;;;;;;;;;13.90;99.90;;;;;;5008584;28;19972;-72
2022/10/02 15:42:04;;;;;;;;;;;13.90;99.90;;;;;;5027939;28;19936;-72